Time;durP1;ratioP1;P1;durP2;ratioP2;P2;SDS_P1;SDS_P2;PMS_P1;PMS_P2;Temp;Humidity;BMP_temperature;BMP_pressure;BME280_temperature;BME280_humidity;BME280_pressure;Samples;Min_cycle;Max_cycle;Signal;HPM_P1;HPM_P2
2024/04/15 00:02:28;;;;;;;3.17;2.27;;;12.50;1.00;;;;;;5347201;26;20501;-73
2024/04/15 00:04:54;;;;;;;3.40;1.83;;;12.40;1.00;;;;;;5340260;26;20541;-74
2024/04/15 00:07:23;;;;;;;4.03;1.50;;;12.30;1.00;;;;;;5347272;26;21039;-72
2024/04/15 00:09:48;;;;;;;5.40;2.10;;;12.30;1.00;;;;;;5349792;26;20490;-72
2024/04/15 00:12:20;;;;;;;7.43;2.10;;;12.20;1.00;;;;;;5347625;26;20539;-72
2024/04/15 00:14:48;;;;;;;5.37;2.23;;;12.20;1.00;;;;;;5348507;26;20492;-72
2024/04/15 00:17:14;;;;;;;5.40;2.37;;;12.10;1.00;;;;;;5346789;26;20543;-73
2024/04/15 00:19:43;;;;;;;4.37;2.13;;;12.10;1.00;;;;;;5346370;26;20543;-73
2024/04/15 00:22:09;;;;;;;2.80;1.80;;;12.10;1.00;;;;;;5349462;25;20532;-73
2024/04/15 00:24:40;;;;;;;7.33;2.03;;;12.00;1.00;;;;;;5345940;26;20530;-73
2024/04/15 00:27:06;;;;;;;6.97;2.07;;;12.00;1.00;;;;;;5349597;26;21182;-71
2024/04/15 00:29:37;;;;;;;3.03;2.03;;;11.90;1.00;;;;;;5356373;26;20502;-71
2024/04/15 00:32:03;;;;;;;7.93;2.97;;;11.90;1.00;;;;;;5340168;26;21078;-72
2024/04/15 00:34:33;;;;;;;4.17;1.60;;;11.80;1.00;;;;;;5356249;26;20592;-72
2024/04/15 00:36:59;;;;;;;5.37;2.40;;;11.80;1.00;;;;;;5341865;26;20535;-72
2024/04/15 00:39:28;;;;;;;6.63;2.33;;;11.80;1.00;;;;;;5349315;26;20518;-72
2024/04/15 00:41:54;;;;;;;4.90;2.30;;;11.80;1.00;;;;;;5358306;26;20495;-73
2024/04/15 00:44:22;;;;;;;6.33;2.23;;;11.80;1.00;;;;;;5344976;26;20487;-73
2024/04/15 00:46:51;;;;;;;4.63;1.47;;;11.80;1.00;;;;;;5349390;26;20495;-75
2024/04/15 00:49:20;;;;;;;5.20;1.83;;;11.80;1.00;;;;;;5345060;26;20524;-72
2024/04/15 00:51:45;;;;;;;4.63;1.93;;;11.70;1.00;;;;;;5347786;26;20483;-71
2024/04/15 00:54:14;;;;;;;4.50;2.20;;;11.60;1.00;;;;;;5346850;26;20491;-73
2024/04/15 00:56:41;;;;;;;7.83;2.53;;;11.60;1.00;;;;;;5342332;26;20486;-73
2024/04/15 00:59:11;;;;;;;6.83;2.20;;;11.60;1.00;;;;;;5347245;26;20604;-74
2024/04/15 01:01:38;;;;;;;5.00;1.97;;;11.60;1.00;;;;;;5344949;26;20522;-74
2024/04/15 01:04:09;;;;;;;5.40;2.10;;;11.60;1.00;;;;;;5341737;26;21231;-74
2024/04/15 01:06:36;;;;;;;4.43;1.90;;;11.60;1.00;;;;;;5347997;26;20594;-74
2024/04/15 01:09:04;;;;;;;3.43;1.50;;;11.60;1.00;;;;;;5345339;26;20543;-72
2024/04/15 01:11:30;;;;;;;4.90;1.83;;;11.60;1.00;;;;;;5349546;26;20678;-73
2024/04/15 01:13:59;;;;;;;3.77;2.30;;;11.50;1.00;;;;;;5342683;26;20660;-73
2024/04/15 01:16:34;;;;;;;4.97;2.30;;;11.60;1.00;;;;;;5347964;26;20602;-73
2024/04/15 01:19:02;;;;;;;4.67;2.13;;;11.60;1.00;;;;;;5347369;25;20845;-73
2024/04/15 01:21:31;;;;;;;6.23;2.00;;;11.50;1.00;;;;;;5345086;26;20490;-73
2024/04/15 01:24:03;;;;;;;5.00;2.37;;;11.50;1.00;;;;;;5345071;26;20539;-73
2024/04/15 01:26:29;;;;;;;5.13;2.13;;;11.60;1.00;;;;;;5350235;26;20492;-73
2024/04/15 01:28:58;;;;;;;6.63;2.60;;;11.50;1.00;;;;;;5348093;26;20498;-73
2024/04/15 01:31:24;;;;;;;7.27;1.73;;;11.50;1.00;;;;;;5343504;26;20492;-74
2024/04/15 01:33:52;;;;;;;3.27;1.60;;;11.50;1.00;;;;;;5347563;26;20632;-73
2024/04/15 01:36:18;;;;;;;4.80;2.47;;;11.40;1.00;;;;;;5342760;26;21046;-73
2024/04/15 01:38:47;;;;;;;3.87;1.97;;;11.50;1.00;;;;;;5335149;26;20506;-73
2024/04/15 01:41:15;;;;;;;3.53;1.90;;;11.50;1.00;;;;;;5311801;26;20485;-72
2024/04/15 01:43:44;;;;;;;6.80;2.60;;;11.50;1.00;;;;;;5315585;26;20623;-73
2024/04/15 01:46:09;;;;;;;3.80;2.37;;;11.50;1.00;;;;;;5331309;26;21046;-73
2024/04/15 01:48:38;;;;;;;6.80;2.00;;;11.50;1.00;;;;;;5345556;26;20504;-73
2024/04/15 01:51:04;;;;;;;5.40;2.23;;;11.50;1.00;;;;;;5347564;26;20479;-72
2024/04/15 01:53:33;;;;;;;2.80;1.53;;;11.50;1.00;;;;;;5348295;26;20496;-71
2024/04/15 01:56:01;;;;;;;9.53;2.23;;;11.40;1.00;;;;;;5348282;26;21034;-72
2024/04/15 01:58:30;;;;;;;5.63;1.73;;;11.50;1.00;;;;;;5345440;26;20503;-72
2024/04/15 02:01:05;;;;;;;5.40;1.80;;;11.40;1.00;;;;;;5352339;26;20571;-72
2024/04/15 02:03:32;;;;;;;6.27;2.20;;;11.30;1.00;;;;;;5340358;26;20486;-73
2024/04/15 02:06:00;;;;;;;3.27;1.90;;;11.30;1.00;;;;;;5330076;26;20547;-72
2024/04/15 02:08:26;;;;;;;6.17;1.83;;;11.30;1.00;;;;;;5347559;26;20593;-72
2024/04/15 02:10:55;;;;;;;6.20;1.93;;;11.40;1.00;;;;;;5390216;26;21086;-73
2024/04/15 02:13:21;;;;;;;5.10;2.07;;;11.40;1.00;;;;;;5345256;26;20493;-76
2024/04/15 02:15:52;;;;;;;2.63;1.70;;;11.40;1.00;;;;;;5326718;26;20500;-73
2024/04/15 02:18:18;;;;;;;4.07;2.37;;;11.30;1.00;;;;;;5335041;26;21370;-72
2024/04/15 02:20:47;;;;;;;3.40;1.90;;;11.30;1.00;;;;;;5345623;26;20499;-71
2024/04/15 02:23:12;;;;;;;3.90;1.90;;;11.30;1.00;;;;;;5320668;26;20948;-72
2024/04/15 02:25:41;;;;;;;5.80;1.87;;;11.30;1.00;;;;;;5334224;26;20475;-73
2024/04/15 02:28:07;;;;;;;5.30;3.00;;;11.40;1.00;;;;;;5345677;26;20491;-73
2024/04/15 02:30:35;;;;;;;5.50;2.23;;;11.40;1.00;;;;;;5346248;26;20944;-73
2024/04/15 02:33:04;;;;;;;6.87;3.33;;;11.30;1.00;;;;;;5345688;26;20483;-73
2024/04/15 02:35:33;;;;;;;8.40;2.37;;;11.30;1.00;;;;;;5344495;26;21000;-72
2024/04/15 02:37:59;;;;;;;7.93;2.13;;;11.30;1.00;;;;;;5348011;26;20497;-74
2024/04/15 02:40:27;;;;;;;3.80;1.67;;;11.30;1.00;;;;;;5346337;26;20927;-74
2024/04/15 02:42:53;;;;;;;3.43;1.57;;;11.30;1.00;;;;;;5351937;26;20481;-73
2024/04/15 02:45:22;;;;;;;3.83;2.30;;;11.30;1.00;;;;;;5350373;26;20524;-72
2024/04/15 02:47:48;;;;;;;3.43;1.50;;;11.30;1.00;;;;;;5345605;26;20543;-74
2024/04/15 02:50:19;;;;;;;5.60;2.10;;;11.30;1.00;;;;;;5344856;26;20554;-75
2024/04/15 02:52:45;;;;;;;4.60;2.03;;;11.30;1.00;;;;;;5351820;26;20537;-72
2024/04/15 02:55:13;;;;;;;3.40;1.93;;;11.30;1.00;;;;;;5336864;26;20536;-72
2024/04/15 02:57:39;;;;;;;8.43;2.50;;;11.30;1.00;;;;;;5335316;26;20500;-72
2024/04/15 03:00:09;;;;;;;6.27;2.47;;;11.30;1.00;;;;;;5348659;26;20841;-73
2024/04/15 03:02:35;;;;;;;9.97;2.70;;;11.20;1.00;;;;;;5335036;26;20493;-73
2024/04/15 03:05:04;;;;;;;4.73;1.90;;;11.20;1.00;;;;;;5329029;26;20540;-73
2024/04/15 03:07:33;;;;;;;3.77;1.90;;;11.20;1.00;;;;;;5331074;26;21138;-73
2024/04/15 03:10:01;;;;;;;5.80;2.13;;;11.20;1.00;;;;;;5336584;26;20737;-73
2024/04/15 03:12:27;;;;;;;5.50;2.50;;;11.30;1.00;;;;;;5312685;26;20494;-71
2024/04/15 03:14:56;;;;;;;5.80;2.80;;;11.10;1.00;;;;;;5307513;26;20865;-72
2024/04/15 03:17:22;;;;;;;3.10;2.00;;;11.00;1.00;;;;;;5322987;26;20476;-72
2024/04/15 03:19:54;;;;;;;5.27;2.00;;;11.00;1.00;;;;;;5319755;26;20611;-73
2024/04/15 03:22:20;;;;;;;4.10;1.60;;;11.10;1.00;;;;;;5313532;26;21020;-73
2024/04/15 03:24:52;;;;;;;7.50;2.73;;;11.10;1.00;;;;;;5316056;26;21500;-72
2024/04/15 03:27:19;;;;;;;9.13;2.40;;;11.20;1.00;;;;;;5313724;26;20957;-75
2024/04/15 03:29:48;;;;;;;12.80;3.00;;;11.10;1.00;;;;;;5312838;26;20488;-73
2024/04/15 03:32:14;;;;;;;7.97;2.93;;;11.10;1.00;;;;;;5316624;26;20537;-73
2024/04/15 03:34:42;;;;;;;3.80;2.37;;;11.20;1.00;;;;;;5314993;26;20661;-72
2024/04/15 03:37:11;;;;;;;8.07;3.13;;;11.10;1.00;;;;;;5316893;26;20571;-70
2024/04/15 03:39:40;;;;;;;7.57;3.30;;;11.10;1.00;;;;;;5310199;26;21359;-71
2024/04/15 03:42:08;;;;;;;7.77;3.30;;;11.10;1.00;;;;;;5315785;26;20537;-72
2024/04/15 03:44:37;;;;;;;9.70;4.03;;;11.10;1.00;;;;;;5315905;26;20480;-72
2024/04/15 03:47:04;;;;;;;6.70;2.90;;;11.20;1.00;;;;;;5312317;26;20541;-74
2024/04/15 03:49:32;;;;;;;6.70;2.67;;;11.10;1.00;;;;;;5312637;26;20516;-74
2024/04/15 03:51:59;;;;;;;7.70;4.10;;;11.20;1.00;;;;;;5314046;26;21135;-74
2024/04/15 03:54:28;;;;;;;8.20;2.17;;;11.10;1.00;;;;;;5317785;26;20623;-72
2024/04/15 03:56:54;;;;;;;6.00;2.00;;;10.90;1.00;;;;;;5316899;26;20497;-73
2024/04/15 03:59:25;;;;;;;4.80;1.80;;;10.80;1.00;;;;;;5312141;26;20588;-72
2024/04/15 04:01:51;;;;;;;5.07;2.10;;;10.70;1.00;;;;;;5315484;26;20537;-71
2024/04/15 04:04:20;;;;;;;7.10;2.27;;;10.60;1.00;;;;;;5307405;26;21065;-74
2024/04/15 04:06:46;;;;;;;5.97;1.60;;;10.60;1.00;;;;;;5317222;26;21059;-73
2024/04/15 04:09:14;;;;;;;5.50;2.40;;;10.60;1.00;;;;;;5317648;26;20563;-73
2024/04/15 04:11:40;;;;;;;5.63;2.23;;;10.50;1.00;;;;;;5318089;26;20500;-73
2024/04/15 04:14:09;;;;;;;6.63;2.73;;;10.50;1.00;;;;;;5310724;26;20551;-73
2024/04/15 04:16:37;;;;;;;7.40;2.23;;;10.40;1.00;;;;;;5307803;26;20571;-72
2024/04/15 04:19:06;;;;;;;4.97;1.83;;;10.30;1.00;;;;;;5313772;26;20531;-72
2024/04/15 04:21:32;;;;;;;3.80;2.20;;;10.30;1.00;;;;;;5318727;26;20479;-72
2024/04/15 04:24:01;;;;;;;9.57;2.10;;;10.30;1.00;;;;;;5348427;26;20542;-74
2024/04/15 04:26:27;;;;;;;7.90;2.10;;;10.20;1.00;;;;;;5355410;26;20483;-73
2024/04/15 04:28:56;;;;;;;3.70;1.80;;;10.20;1.00;;;;;;5334872;26;20487;-72
2024/04/15 04:31:22;;;;;;;15.73;11.17;;;10.20;1.00;;;;;;5349525;26;21034;-72
2024/04/15 04:33:53;;;;;;;4.70;1.57;;;10.20;1.00;;;;;;5344998;26;20505;-73
2024/04/15 04:36:19;;;;;;;4.00;1.60;;;10.30;1.00;;;;;;5342138;26;20527;-74
2024/04/15 04:38:48;;;;;;;5.90;3.03;;;10.30;1.00;;;;;;5335149;26;21077;-72
2024/04/15 04:41:14;;;;;;;5.03;2.83;;;10.40;1.00;;;;;;5329564;26;20490;-73
2024/04/15 04:43:44;;;;;;;7.83;3.27;;;10.50;1.00;;;;;;5344153;26;20566;-74
2024/04/15 04:46:11;;;;;;;5.53;2.60;;;10.50;1.00;;;;;;5340334;26;20481;-72
2024/04/15 04:48:40;;;;;;;7.30;4.10;;;10.60;1.00;;;;;;5348826;26;20480;-76
2024/04/15 04:51:11;;;;;;;9.23;3.93;;;10.60;1.00;;;;;;5348258;26;20486;-75
2024/04/15 04:53:40;;;;;;;7.43;4.20;;;10.60;1.00;;;;;;5342619;26;21010;-72
2024/04/15 04:56:08;;;;;;;15.73;6.37;;;10.50;1.00;;;;;;5329430;26;21029;-72
2024/04/15 04:58:36;;;;;;;8.80;3.90;;;10.50;1.00;;;;;;5316540;26;20500;-73
2024/04/15 05:01:09;;;;;;;7.50;4.33;;;10.40;1.00;;;;;;5309784;26;20508;-72
2024/04/15 05:03:38;;;;;;;7.80;3.93;;;10.40;1.00;;;;;;5314331;26;20540;-71
2024/04/15 05:06:08;;;;;;;11.90;4.53;;;10.40;1.00;;;;;;5314462;26;20544;-70
2024/04/15 05:08:37;;;;;;;9.90;4.03;;;10.40;1.00;;;;;;5323059;26;20974;-74
2024/04/15 05:11:04;;;;;;;8.50;4.63;;;10.40;1.00;;;;;;5347497;26;20636;-71
2024/04/15 05:13:33;;;;;;;8.00;4.40;;;10.40;1.00;;;;;;5348857;26;20495;-73
2024/04/15 05:16:03;;;;;;;5.60;3.60;;;10.50;1.00;;;;;;5347153;26;20597;-71
2024/04/15 05:18:31;;;;;;;7.40;3.90;;;10.50;1.00;;;;;;5342290;26;21102;-72
2024/04/15 05:20:59;;;;;;;7.10;3.70;;;10.50;1.00;;;;;;5346756;26;20673;-71
2024/04/15 05:23:31;;;;;;;6.97;3.80;;;10.60;1.00;;;;;;5345613;26;20545;-72
2024/04/15 05:25:58;;;;;;;9.10;6.00;;;10.60;1.00;;;;;;5351166;26;20543;-72
2024/04/15 05:28:27;;;;;;;7.73;3.27;;;10.70;1.00;;;;;;5348286;26;20527;-71
2024/04/15 05:30:55;;;;;;;5.60;2.40;;;10.80;1.00;;;;;;5345712;26;20490;-71
2024/04/15 05:33:23;;;;;;;8.07;4.10;;;11.10;1.00;;;;;;5348305;25;21162;-71
2024/04/15 05:35:50;;;;;;;9.87;3.67;;;11.30;1.00;;;;;;5386284;26;20926;-73
2024/04/15 05:38:19;;;;;;;8.43;3.60;;;11.50;1.00;;;;;;5350448;26;21248;-73
2024/04/15 05:40:48;;;;;;;8.10;3.07;;;11.70;1.00;;;;;;5343666;26;20547;-75
2024/04/15 05:43:17;;;;;;;9.90;3.90;;;11.80;1.00;;;;;;5348791;26;20519;-74
2024/04/15 05:45:43;;;;;;;5.80;2.80;;;12.00;1.00;;;;;;5355004;26;20569;-73
2024/04/15 05:48:13;;;;;;;7.63;3.00;;;11.90;1.00;;;;;;5346454;26;20539;-72
2024/04/15 05:50:40;;;;;;;13.53;3.17;;;12.00;1.00;;;;;;5346683;26;20531;-73
2024/04/15 05:53:08;;;;;;;7.40;3.07;;;12.00;1.00;;;;;;5344295;26;20543;-77
2024/04/15 05:55:35;;;;;;;22.60;3.33;;;12.10;1.00;;;;;;5347012;26;20491;-73
2024/04/15 05:58:08;;;;;;;6.87;3.50;;;12.10;1.00;;;;;;5351552;26;20586;-74
2024/04/15 06:00:35;;;;;;;5.10;2.20;;;12.20;1.00;;;;;;5348908;26;20529;-72
2024/04/15 06:03:03;;;;;;;9.63;4.53;;;12.20;1.00;;;;;;5347309;26;20467;-72
2024/04/15 06:05:29;;;;;;;5.63;2.80;;;12.20;1.00;;;;;;5346887;26;20482;-73
2024/04/15 06:07:58;;;;;;;5.03;3.13;;;12.20;1.00;;;;;;5343134;26;21067;-74
2024/04/15 06:10:24;;;;;;;8.90;4.20;;;12.10;1.00;;;;;;5346371;26;20531;-73
2024/04/15 06:12:53;;;;;;;10.37;3.43;;;12.10;1.00;;;;;;5340238;26;20562;-73
2024/04/15 06:15:21;;;;;;;8.50;3.37;;;12.10;1.00;;;;;;5344740;26;20480;-73
2024/04/15 06:17:50;;;;;;;7.40;3.07;;;12.10;1.00;;;;;;5350498;26;20619;-74
2024/04/15 06:20:16;;;;;;;9.47;3.07;;;12.20;1.00;;;;;;5339856;26;20943;-74
2024/04/15 06:22:44;;;;;;;17.00;3.97;;;12.20;1.00;;;;;;5347364;26;20507;-71
2024/04/15 06:25:11;;;;;;;6.90;2.83;;;12.30;1.00;;;;;;5351628;26;20579;-73
2024/04/15 06:27:39;;;;;;;8.30;2.90;;;12.30;1.00;;;;;;5353563;26;21004;-73
2024/04/15 06:30:08;;;;;;;11.17;3.67;;;12.40;1.00;;;;;;5351051;26;21027;-74
2024/04/15 06:32:40;;;;;;;6.93;2.67;;;12.40;1.00;;;;;;5353549;26;20491;-72
2024/04/15 06:35:06;;;;;;;4.50;2.20;;;12.50;1.00;;;;;;5348432;26;20483;-74
2024/04/15 06:37:35;;;;;;;4.60;2.47;;;12.50;1.00;;;;;;5344177;26;20481;-73
2024/04/15 06:40:01;;;;;;;7.20;2.57;;;12.60;1.00;;;;;;5352141;26;21381;-72
2024/04/15 06:42:29;;;;;;;7.37;3.13;;;12.50;1.00;;;;;;5349275;26;20483;-72
2024/04/15 06:44:55;;;;;;;17.10;4.27;;;12.40;1.00;;;;;;5350318;26;20535;-75
2024/04/15 06:47:24;;;;;;;6.97;2.47;;;12.30;1.00;;;;;;5349539;26;20555;-72
2024/04/15 06:49:52;;;;;;;7.17;2.70;;;12.30;1.00;;;;;;5348987;26;20490;-71
2024/04/15 06:52:21;;;;;;;6.60;2.33;;;12.20;1.00;;;;;;5347860;26;20504;-72
2024/04/15 06:54:47;;;;;;;9.90;3.40;;;12.30;1.00;;;;;;5349990;26;21071;-72
2024/04/15 06:57:15;;;;;;;7.10;2.47;;;12.40;1.00;;;;;;5349816;26;20488;-73
2024/04/15 06:59:41;;;;;;;8.20;2.47;;;12.40;1.00;;;;;;5350422;26;21148;-71
2024/04/15 07:02:13;;;;;;;8.43;2.50;;;12.40;1.00;;;;;;5347776;26;20570;-69
2024/04/15 07:04:39;;;;;;;5.73;2.40;;;12.40;1.00;;;;;;5345296;26;20486;-73
2024/04/15 07:07:10;;;;;;;10.63;4.67;;;12.30;1.00;;;;;;5348949;26;20493;-72
2024/04/15 07:09:36;;;;;;;4.03;2.17;;;12.30;1.00;;;;;;5347464;26;20495;-69
2024/04/15 07:12:05;;;;;;;7.55;3.38;;;12.30;1.00;;;;;;5344729;26;20366;-73
2024/04/15 07:14:31;;;;;;;6.13;2.53;;;12.30;1.00;;;;;;5351152;25;20274;-72
2024/04/15 07:17:00;;;;;;;7.90;2.77;;;12.30;1.00;;;;;;5345807;26;21007;-70
2024/04/15 07:19:27;;;;;;;8.57;3.00;;;12.40;1.00;;;;;;5377845;26;20573;-71
2024/04/15 07:21:55;;;;;;;6.60;2.90;;;12.50;1.00;;;;;;5361102;26;20544;-71
2024/04/15 07:24:24;;;;;;;5.50;2.60;;;12.80;1.00;;;;;;5345172;26;20492;-72
2024/04/15 07:26:52;;;;;;;6.13;2.37;;;13.00;1.00;;;;;;5349126;26;20531;-75
2024/04/15 07:29:18;;;;;;;6.00;2.17;;;13.00;1.00;;;;;;5347610;26;20508;-75
2024/04/15 07:31:47;;;;;;;11.67;3.40;;;13.00;1.00;;;;;;5347414;26;20654;-71
2024/04/15 07:34:13;;;;;;;4.53;2.40;;;13.30;1.00;;;;;;5348724;26;20548;-70
2024/04/15 07:36:41;;;;;;;7.00;3.17;;;13.50;1.00;;;;;;5347339;26;20585;-72
2024/04/15 07:39:07;;;;;;;7.60;3.90;;;13.60;1.00;;;;;;5352575;26;20492;-72
2024/04/15 07:41:39;;;;;;;8.48;3.70;;;13.70;1.00;;;;;;5340641;26;20404;-72
2024/04/15 07:44:05;;;;;;;13.00;6.60;;;13.70;1.00;;;;;;5353775;25;21249;-70
2024/04/15 07:46:34;;;;;;;6.90;2.80;;;13.80;1.00;;;;;;5348075;26;20488;-71
2024/04/15 07:49:00;;;;;;;8.00;3.27;;;14.10;1.00;;;;;;5352426;26;20515;-73
2024/04/15 07:51:28;;;;;;;7.10;2.83;;;14.20;1.00;;;;;;5351055;26;20508;-71
2024/04/15 07:53:54;;;;;;;8.50;3.97;;;14.30;1.00;;;;;;5345717;26;20491;-72
2024/04/15 07:56:23;;;;;;;5.00;2.67;;;14.60;1.00;;;;;;5348596;26;21101;-72
2024/04/15 07:58:52;;;;;;;5.30;2.90;;;14.80;1.00;;;;;;5349307;26;20523;-72
2024/04/15 08:01:20;;;;;;;7.13;2.40;;;14.90;1.00;;;;;;5326396;26;20918;-72
2024/04/15 08:03:46;;;;;;;6.00;2.63;;;14.70;1.00;;;;;;5326439;26;20486;-71
2024/04/15 08:06:15;;;;;;;5.53;2.88;;;14.50;1.00;;;;;;5303749;26;20367;-71
2024/04/15 08:08:41;;;;;;;7.90;3.27;;;14.60;1.00;;;;;;5312988;26;20311;-70
2024/04/15 08:11:10;;;;;;;8.67;3.27;;;14.50;1.00;;;;;;5337978;26;20538;-69
2024/04/15 08:13:36;;;;;;;7.60;2.60;;;14.50;1.00;;;;;;5342231;26;20500;-70
2024/04/15 08:16:07;;;;;;;8.97;2.93;;;14.90;1.00;;;;;;5335374;26;20491;-73
2024/04/15 08:18:33;;;;;;;7.50;2.90;;;15.10;1.00;;;;;;5311545;26;21435;-71
2024/04/15 08:21:02;;;;;;;4.07;3.00;;;15.30;1.00;;;;;;5341058;26;20518;-72
2024/04/15 08:23:28;;;;;;;4.10;2.97;;;15.40;1.00;;;;;;5339000;26;20553;-71
2024/04/15 08:25:57;;;;;;;5.33;3.37;;;15.40;1.00;;;;;;5344447;26;20546;-71
2024/04/15 08:28:24;;;;;;;5.30;3.50;;;15.40;1.00;;;;;;5342880;26;20497;-73
2024/04/15 08:30:52;;;;;;;6.70;3.43;;;15.60;1.00;;;;;;5348310;26;20498;-72
2024/04/15 08:33:21;;;;;;;6.13;3.53;;;15.60;1.00;;;;;;5319394;26;20546;-71
2024/04/15 08:35:50;;;;;;;4.70;3.73;;;15.60;1.00;;;;;;5355572;26;20538;-72
2024/04/15 08:38:16;;;;;;;4.97;3.23;;;15.90;1.00;;;;;;5347730;26;20453;-73
2024/04/15 08:40:54;;;;;;;4.13;3.30;;;16.10;1.00;;;;;;5346894;26;20507;-70
2024/04/15 08:43:22;;;;;;;4.30;3.33;;;16.30;1.00;;;;;;5315784;26;20556;-72
2024/04/15 08:45:55;;;;;;;8.17;3.20;;;16.40;1.00;;;;;;5315425;26;20608;-73
2024/04/15 08:48:25;;;;;;;4.00;3.20;;;16.30;1.00;;;;;;5312254;26;21439;-72
2024/04/15 08:50:53;;;;;;;3.93;3.17;;;16.50;1.00;;;;;;5313148;26;20549;-76
2024/04/15 08:53:19;;;;;;;5.73;3.37;;;16.50;1.00;;;;;;5331395;26;21011;-72
2024/04/15 08:55:49;;;;;;;3.57;3.27;;;16.40;1.00;;;;;;5324794;26;20992;-70
2024/04/15 08:58:15;;;;;;;9.00;3.50;;;16.30;1.00;;;;;;5317553;26;20840;-71
2024/04/15 09:00:45;;;;;;;6.23;3.50;;;16.20;1.00;;;;;;5317192;26;20497;-73
2024/04/15 09:03:11;;;;;;;4.73;3.17;;;16.10;1.00;;;;;;5329977;26;20477;-71
2024/04/15 09:05:43;;;;;;;4.67;2.90;;;16.20;1.00;;;;;;5338281;26;20522;-72
2024/04/15 09:08:09;;;;;;;13.00;6.40;;;16.50;1.00;;;;;;5344945;26;21972;-72
2024/04/15 09:10:38;;;;;;;4.70;3.20;;;16.70;1.00;;;;;;5336949;26;20544;-71
2024/04/15 09:13:08;;;;;;;6.00;3.10;;;17.00;1.00;;;;;;5331675;26;21121;-72
2024/04/15 09:15:37;;;;;;;5.00;2.90;;;17.10;1.00;;;;;;5350532;26;20501;-73
2024/04/15 09:18:04;;;;;;;6.80;3.23;;;16.90;1.00;;;;;;5348832;26;20537;-73
2024/04/15 09:20:33;;;;;;;4.07;2.80;;;16.80;1.00;;;;;;5343808;26;20543;-73
2024/04/15 09:23:09;;;;;;;4.17;3.33;;;17.00;1.00;;;;;;5345426;26;20499;-74
2024/04/15 09:25:38;;;;;;;5.27;3.20;;;17.30;1.00;;;;;;5343809;26;20511;-74
2024/04/15 09:28:04;;;;;;;4.17;2.90;;;17.40;1.00;;;;;;5347161;26;20499;-74
2024/04/15 09:30:34;;;;;;;4.73;3.00;;;17.30;1.00;;;;;;5349249;26;20605;-74
2024/04/15 09:33:00;;;;;;;4.73;3.00;;;17.30;1.00;;;;;;5346484;26;20594;-73
2024/04/15 09:35:31;;;;;;;4.97;2.73;;;17.60;1.00;;;;;;5345267;26;20922;-74
2024/04/15 09:37:58;;;;;;;7.27;5.80;;;19.20;1.00;;;;;;5349504;26;20498;-74
2024/04/15 09:40:31;;;;;;;7.17;3.00;;;20.90;1.00;;;;;;5347972;26;20503;-73
2024/04/15 09:42:58;;;;;;;5.97;2.37;;;22.70;1.00;;;;;;5335712;26;20535;-74
2024/04/15 09:45:30;;;;;;;3.67;2.43;;;23.40;1.00;;;;;;5343548;26;20492;-72
2024/04/15 09:47:57;;;;;;;6.20;2.30;;;23.40;1.00;;;;;;5345306;26;20502;-73
2024/04/15 09:50:30;;;;;;;2.80;2.43;;;24.10;1.00;;;;;;5347860;26;20633;-74
2024/04/15 09:52:57;;;;;;;2.67;2.47;;;24.40;1.00;;;;;;5341256;26;20549;-73
2024/04/15 09:55:33;;;;;;;3.60;2.50;;;23.90;1.00;;;;;;5347437;26;20537;-73
2024/04/15 09:58:01;;;;;;;2.90;2.20;;;23.80;1.00;;;;;;5339356;26;21065;-73
2024/04/15 10:00:31;;;;;;;6.63;2.40;;;23.70;1.00;;;;;;5344104;26;21010;-74
2024/04/15 10:03:03;;;;;;;5.53;2.90;;;22.20;1.00;;;;;;5317063;26;20502;-74
2024/04/15 10:05:35;;;;;;;4.90;2.50;;;21.50;1.00;;;;;;5305904;26;20613;-72
2024/04/15 10:08:00;;;;;;;2.80;2.33;;;20.70;1.00;;;;;;5313536;26;20486;-74
2024/04/15 10:10:35;;;;;;;2.60;1.90;;;20.00;1.00;;;;;;5348014;26;20502;-73
2024/04/15 10:13:03;;;;;;;2.97;1.90;;;19.40;1.00;;;;;;5340582;26;20555;-73
2024/04/15 10:15:32;;;;;;;4.57;4.17;;;19.10;1.00;;;;;;5334036;26;21040;-73
2024/04/15 10:18:01;;;;;;;3.40;2.77;;;18.70;1.00;;;;;;5342561;25;20492;-74
2024/04/15 10:20:31;;;;;;;4.80;2.27;;;18.30;1.00;;;;;;5346346;26;20488;-74
2024/04/15 10:22:58;;;;;;;3.67;2.47;;;17.80;1.00;;;;;;5346932;26;20890;-75
2024/04/15 10:25:28;;;;;;;2.93;2.63;;;17.30;1.00;;;;;;5350432;26;20543;-72
2024/04/15 10:27:57;;;;;;;4.20;2.50;;;17.00;1.00;;;;;;5346560;26;20977;-73
2024/04/15 10:30:29;;;;;;;5.43;2.20;;;16.90;1.00;;;;;;5346187;26;21024;-71
2024/04/15 10:32:58;;;;;;;4.50;2.37;;;17.30;1.00;;;;;;5352915;26;20549;-72
2024/04/15 10:35:28;;;;;;;3.70;2.60;;;19.30;1.00;;;;;;5334260;26;20559;-73
2024/04/15 10:37:58;;;;;;;3.83;2.10;;;20.20;1.00;;;;;;5309182;26;20663;-72
2024/04/15 10:40:31;;;;;;;3.20;2.10;;;19.80;1.00;;;;;;5346345;26;20499;-72
2024/04/15 10:43:00;;;;;;;5.70;2.20;;;18.90;1.00;;;;;;5345275;26;20544;-71
2024/04/15 10:45:29;;;;;;;3.57;2.20;;;18.00;1.00;;;;;;5346149;26;20495;-71
2024/04/15 10:47:55;;;;;;;5.97;2.23;;;17.40;1.00;;;;;;5342747;26;20483;-72
2024/04/15 10:50:25;;;;;;;2.33;1.70;;;16.90;1.00;;;;;;5346027;26;20555;-75
2024/04/15 10:52:51;;;;;;;2.63;1.80;;;16.40;1.00;;;;;;5340780;26;20604;-73
2024/04/15 10:55:20;;;;;;;3.63;1.90;;;16.10;1.00;;;;;;5328369;26;20558;-73
2024/04/15 10:57:47;;;;;;;3.73;1.80;;;16.00;1.00;;;;;;5345362;26;20621;-72
2024/04/15 11:00:19;;;;;;;3.53;2.20;;;16.00;1.00;;;;;;5345022;26;21420;-71
2024/04/15 11:02:48;;;;;;;5.23;2.03;;;15.90;1.00;;;;;;5345609;26;20491;-72
2024/04/15 11:05:17;;;;;;;3.80;2.27;;;16.20;1.00;;;;;;5327296;26;20484;-72
2024/04/15 11:07:44;;;;;;;3.90;2.40;;;16.70;1.00;;;;;;5330831;26;20496;-71
2024/04/15 11:10:14;;;;;;;2.07;1.70;;;16.00;1.00;;;;;;5343820;26;20595;-73
2024/04/15 11:12:41;;;;;;;2.13;1.93;;;15.70;1.00;;;;;;5344332;26;20629;-73
2024/04/15 11:15:12;;;;;;;4.47;2.13;;;15.60;1.00;;;;;;5327046;26;20494;-73
2024/04/15 11:17:47;;;;;;;4.30;2.80;;;15.70;1.00;;;;;;5341678;26;20490;-74
2024/04/15 11:20:16;;;;;;;6.23;2.90;;;15.50;1.00;;;;;;5348492;26;20545;-74
2024/04/15 11:22:42;;;;;;;6.13;3.37;;;15.10;1.00;;;;;;5323427;26;20498;-75
2024/04/15 11:25:10;;;;;;;2.90;2.60;;;15.00;1.00;;;;;;5311079;26;21118;-75
2024/04/15 11:27:39;;;;;;;6.97;3.70;;;14.80;1.00;;;;;;5307134;26;20540;-73
2024/04/15 11:30:12;;;;;;;3.80;2.33;;;14.90;1.00;;;;;;5316938;26;20484;-74
2024/04/15 11:32:38;;;;;;;2.20;2.00;;;14.90;1.00;;;;;;5304419;26;20555;-71
2024/04/15 11:35:11;;;;;;;3.10;2.07;;;15.20;1.00;;;;;;5313542;26;20494;-72
2024/04/15 11:37:37;;;;;;;2.90;2.30;;;15.30;1.00;;;;;;5312879;26;21274;-72
2024/04/15 11:40:07;;;;;;;3.93;2.70;;;15.50;1.00;;;;;;5314861;26;20567;-72
2024/04/15 11:42:33;;;;;;;6.50;2.83;;;15.40;1.00;;;;;;5300705;26;20966;-73
2024/04/15 11:45:06;;;;;;;3.93;2.10;;;15.10;1.00;;;;;;5337045;26;20498;-72
2024/04/15 11:47:32;;;;;;;6.33;2.70;;;14.80;1.00;;;;;;5348070;26;21001;-73
2024/04/15 11:50:04;;;;;;;3.50;2.60;;;14.60;1.00;;;;;;5334247;26;21109;-72
2024/04/15 11:52:32;;;;;;;3.83;3.17;;;14.60;1.00;;;;;;5350073;26;20553;-73
2024/04/15 11:55:01;;;;;;;3.90;3.60;;;14.80;1.00;;;;;;5333849;26;20545;-74
2024/04/15 11:57:27;;;;;;;4.20;3.80;;;14.70;1.00;;;;;;5320032;26;20551;-75
2024/04/15 12:00:00;;;;;;;5.33;4.80;;;14.60;1.00;;;;;;5305559;26;20579;-74
2024/04/15 12:02:26;;;;;;;5.20;4.80;;;14.50;1.00;;;;;;5348116;26;20672;-74
2024/04/15 12:04:55;;;;;;;4.87;4.40;;;14.90;1.00;;;;;;5345381;26;20510;-73
2024/04/15 12:07:22;;;;;;;4.07;3.77;;;15.90;1.00;;;;;;5324180;26;20506;-74
2024/04/15 12:09:54;;;;;;;4.33;4.00;;;16.50;1.00;;;;;;5346238;26;20526;-73
2024/04/15 12:12:20;;;;;;;4.63;3.73;;;17.40;1.00;;;;;;5345647;26;20496;-74
2024/04/15 12:14:48;;;;;;;5.30;4.03;;;17.30;1.00;;;;;;5338931;26;20999;-73
2024/04/15 12:17:14;;;;;;;4.70;3.87;;;17.00;1.00;;;;;;5312865;26;20478;-75
2024/04/15 12:19:43;;;;;;;4.27;3.87;;;18.10;1.00;;;;;;5312259;26;21024;-74
2024/04/15 12:22:09;;;;;;;4.70;4.30;;;19.00;1.00;;;;;;5311153;26;20494;-76
2024/04/15 12:24:37;;;;;;;4.60;4.20;;;18.70;1.00;;;;;;5337057;26;20556;-75
2024/04/15 12:27:07;;;;;;;4.50;4.10;;;18.70;1.00;;;;;;5344745;26;21679;-73
2024/04/15 12:29:36;;;;;;;5.70;4.50;;;19.20;1.00;;;;;;5348590;26;21073;-75
2024/04/15 12:32:02;;;;;;;4.20;4.00;;;19.10;1.00;;;;;;5347093;26;20506;-73
2024/04/15 12:34:32;;;;;;;9.77;5.30;;;18.80;1.00;;;;;;5336557;26;20498;-74
2024/04/15 12:36:58;;;;;;;4.90;4.40;;;18.70;1.00;;;;;;5312607;26;20494;-75
2024/04/15 12:39:27;;;;;;;4.93;4.50;;;18.30;1.00;;;;;;5341803;26;20543;-75
2024/04/15 12:41:54;;;;;;;5.40;4.90;;;18.60;1.00;;;;;;5345087;26;20549;-76
2024/04/15 12:44:27;;;;;;;4.80;4.50;;;18.60;1.00;;;;;;5346073;26;20604;-73
2024/04/15 12:46:53;;;;;;;5.10;4.80;;;18.60;1.00;;;;;;5350303;26;20484;-73
2024/04/15 12:49:21;;;;;;;4.77;4.37;;;18.40;1.00;;;;;;5333287;26;20521;-73
2024/04/15 12:51:47;;;;;;;5.27;4.67;;;18.00;1.00;;;;;;5342887;26;20486;-72
2024/04/15 12:54:16;;;;;;;5.43;4.60;;;17.50;1.00;;;;;;5345604;26;20865;-72
2024/04/15 12:56:42;;;;;;;4.97;4.57;;;17.20;1.00;;;;;;5311048;26;20572;-73
2024/04/15 12:59:11;;;;;;;5.63;5.23;;;16.80;1.00;;;;;;5338083;26;20535;-74
2024/04/15 13:01:39;;;;;;;5.20;4.80;;;16.40;1.00;;;;;;5351900;26;20985;-73
2024/04/15 13:04:08;;;;;;;5.50;5.10;;;16.30;1.00;;;;;;5351650;26;20491;-73